createdAt,value
2022-12-18T00:01:20.033Z,96.00
2022-12-18T00:03:47.447Z,95.70
2022-12-18T00:06:14.729Z,95.40
2022-12-18T00:08:45.457Z,95.20
2022-12-18T00:11:18.416Z,95.40
2022-12-18T00:13:45.385Z,95.70
2022-12-18T00:16:16.049Z,95.70
2022-12-18T00:18:43.763Z,96.00
2022-12-18T00:21:12.521Z,96.30
2022-12-18T00:23:41.069Z,96.70
2022-12-18T00:26:17.246Z,96.50
2022-12-18T00:28:45.473Z,96.80
2022-12-18T00:31:15.118Z,97.20
2022-12-18T00:33:42.620Z,97.10
2022-12-18T00:36:18.618Z,96.70
2022-12-18T00:38:46.143Z,96.70
2022-12-18T00:41:14.986Z,96.00
2022-12-18T00:43:42.103Z,96.20
2022-12-18T00:46:08.976Z,96.10
2022-12-18T00:48:36.350Z,96.10
2022-12-18T00:51:03.155Z,96.00
2022-12-18T00:53:29.771Z,95.60
2022-12-18T00:55:56.414Z,95.30
2022-12-18T00:58:23.016Z,95.20
2022-12-18T01:00:49.727Z,95.00
2022-12-18T01:03:16.553Z,95.20
2022-12-18T01:05:43.782Z,95.30
2022-12-18T01:08:10.610Z,95.30
2022-12-18T01:10:37.294Z,95.40
2022-12-18T01:13:03.969Z,95.20
2022-12-18T01:15:30.708Z,95.40
2022-12-18T01:17:57.674Z,95.40
2022-12-18T01:20:24.358Z,95.70
2022-12-18T01:22:50.952Z,96.40
2022-12-18T01:25:17.686Z,96.60
2022-12-18T01:27:44.494Z,96.00
2022-12-18T01:30:11.805Z,94.90
2022-12-18T01:32:38.680Z,94.40
2022-12-18T01:35:06.315Z,93.90
2022-12-18T01:37:33.023Z,93.50
2022-12-18T01:39:59.781Z,93.30
2022-12-18T01:42:26.599Z,93.10
2022-12-18T01:45:14.497Z,92.90
2022-12-18T01:47:50.043Z,92.50
2022-12-18T01:50:22.471Z,91.90
2022-12-18T01:53:17.855Z,91.30
2022-12-18T01:55:51.136Z,90.90
2022-12-18T01:58:21.666Z,90.80
2022-12-18T02:00:48.433Z,90.90
2022-12-18T02:03:15.588Z,91.50
2022-12-18T02:05:45.003Z,92.20
2022-12-18T02:08:17.468Z,91.60
2022-12-18T02:10:59.538Z,91.10
2022-12-18T02:13:59.775Z,90.50
2022-12-18T02:16:59.719Z,89.90
2022-12-18T02:19:40.536Z,89.20
2022-12-18T02:22:33.355Z,89.20
2022-12-18T02:25:15.310Z,88.70
2022-12-18T02:27:44.458Z,89.00
2022-12-18T02:30:11.727Z,88.90
2022-12-18T02:32:43.280Z,89.30
2022-12-18T02:35:14.833Z,90.20
2022-12-18T02:37:44.320Z,90.40
2022-12-18T02:40:13.487Z,90.60
2022-12-18T02:42:40.078Z,90.90
2022-12-18T02:45:07.213Z,91.10
2022-12-18T02:47:37.987Z,90.80
2022-12-18T02:50:42.706Z,90.30
2022-12-18T02:53:24.643Z,90.10
2022-12-18T02:56:09.477Z,89.90
2022-12-18T02:59:01.393Z,89.70
2022-12-18T03:01:53.248Z,89.70
2022-12-18T03:04:38.084Z,89.70
2022-12-18T03:07:09.916Z,89.50
2022-12-18T03:09:41.943Z,89.30
2022-12-18T03:12:31.508Z,88.50
2022-12-18T03:15:14.562Z,87.70
2022-12-18T03:17:50.277Z,88.10
2022-12-18T03:20:24.472Z,88.50
2022-12-18T03:23:01.053Z,89.10
2022-12-18T03:25:32.024Z,88.70
2022-12-18T03:28:02.404Z,88.80
2022-12-18T03:30:33.213Z,87.50
2022-12-18T03:33:11.513Z,86.70
2022-12-18T03:35:42.670Z,86.50
2022-12-18T03:38:10.418Z,86.70
2022-12-18T03:41:17.992Z,86.50
2022-12-18T03:43:57.516Z,86.80
2022-12-18T03:46:26.701Z,87.30
2022-12-18T03:49:07.809Z,86.70
2022-12-18T03:51:48.580Z,87.30
2022-12-18T03:54:17.366Z,88.00
2022-12-18T03:56:49.437Z,87.80
2022-12-18T03:59:17.960Z,87.00
2022-12-18T04:01:49.256Z,86.20
2022-12-18T04:04:17.831Z,85.70
2022-12-18T04:06:46.430Z,85.90
2022-12-18T04:09:13.890Z,85.60
2022-12-18T04:11:42.206Z,85.30
2022-12-18T04:14:11.876Z,84.70
2022-12-18T04:16:41.287Z,84.40
2022-12-18T04:19:08.011Z,83.90
2022-12-18T04:21:34.729Z,84.10
2022-12-18T04:24:01.377Z,84.00
2022-12-18T04:26:28.156Z,84.10
2022-12-18T04:28:54.816Z,83.90
2022-12-18T04:31:21.600Z,84.10
2022-12-18T04:33:48.480Z,84.30
2022-12-18T04:36:15.134Z,84.30
2022-12-18T04:38:41.789Z,84.30
2022-12-18T04:41:08.545Z,83.80
2022-12-18T04:43:35.185Z,83.70
2022-12-18T04:46:08.816Z,83.40
2022-12-18T04:48:37.897Z,83.30
2022-12-18T04:51:06.011Z,83.20
2022-12-18T04:53:33.172Z,82.90
2022-12-18T04:56:11.074Z,83.10
2022-12-18T04:58:39.221Z,82.80
2022-12-18T05:01:06.259Z,82.80
2022-12-18T05:03:33.098Z,83.50
2022-12-18T05:05:59.769Z,83.20
2022-12-18T05:08:26.426Z,82.80
2022-12-18T05:11:09.747Z,83.90
2022-12-18T05:13:39.113Z,83.50
2022-12-18T05:16:06.859Z,83.50
2022-12-18T05:18:33.595Z,83.30
2022-12-18T05:21:00.222Z,83.30
2022-12-18T05:23:27.530Z,82.60
2022-12-18T05:25:59.147Z,82.50
2022-12-18T05:28:28.004Z,82.30
2022-12-18T05:30:57.207Z,82.30
2022-12-18T05:33:25.883Z,82.50
2022-12-18T05:35:54.108Z,82.60
2022-12-18T05:38:22.017Z,82.70
2022-12-18T05:40:49.392Z,82.90
2022-12-18T05:43:20.991Z,82.90
2022-12-18T05:45:48.805Z,82.70
2022-12-18T05:48:16.726Z,82.50
2022-12-18T05:50:46.443Z,82.00
2022-12-18T05:53:15.369Z,82.00
2022-12-18T05:55:43.387Z,82.20
2022-12-18T05:58:11.388Z,82.20
2022-12-18T06:00:43.481Z,81.90
2022-12-18T06:03:11.746Z,81.70
2022-12-18T06:05:43.823Z,81.90
2022-12-18T06:08:11.514Z,82.00
2022-12-18T06:10:38.385Z,82.00
2022-12-18T06:13:05.952Z,82.30
2022-12-18T06:15:32.919Z,81.60
2022-12-18T06:18:01.139Z,81.80
2022-12-18T06:20:33.124Z,81.90
2022-12-18T06:23:00.287Z,82.20
2022-12-18T06:25:27.066Z,82.80
2022-12-18T06:27:53.682Z,82.50
2022-12-18T06:30:20.371Z,82.00
2022-12-18T06:32:53.076Z,81.50
2022-12-18T06:35:21.444Z,81.70
2022-12-18T06:37:48.289Z,81.40
2022-12-18T06:40:15.037Z,81.50
2022-12-18T06:42:41.785Z,81.40
2022-12-18T06:45:09.009Z,81.30
2022-12-18T06:47:35.675Z,81.10
2022-12-18T06:50:02.322Z,81.20
2022-12-18T06:52:29.062Z,81.30
2022-12-18T06:54:55.720Z,81.30
2022-12-18T06:57:22.364Z,81.20
2022-12-18T06:59:48.968Z,81.20
2022-12-18T07:02:15.737Z,81.10
2022-12-18T07:04:42.513Z,81.00
2022-12-18T07:07:09.135Z,80.90
2022-12-18T07:09:35.951Z,80.60
2022-12-18T07:12:02.690Z,80.50
2022-12-18T07:14:29.289Z,80.50
2022-12-18T07:16:56.648Z,80.50
2022-12-18T07:19:26.044Z,80.30
2022-12-18T07:21:52.864Z,80.40
2022-12-18T07:24:19.558Z,80.80
2022-12-18T07:26:49.335Z,81.10
2022-12-18T07:29:16.123Z,81.10
2022-12-18T07:31:42.923Z,80.90
2022-12-18T07:34:14.130Z,80.80
2022-12-18T07:36:40.801Z,81.00
2022-12-18T07:39:07.997Z,81.10
2022-12-18T07:41:34.678Z,81.20
2022-12-18T07:44:01.332Z,81.20
2022-12-18T07:46:27.993Z,81.00
2022-12-18T07:48:54.633Z,81.00
2022-12-18T07:51:21.475Z,80.80
2022-12-18T07:53:49.688Z,80.90
2022-12-18T07:56:28.997Z,81.50
2022-12-18T07:59:00.404Z,81.30
2022-12-18T08:01:28.049Z,81.40
2022-12-18T08:03:54.921Z,81.60
2022-12-18T08:06:23.342Z,81.90
2022-12-18T08:08:55.482Z,81.90
2022-12-18T08:11:23.550Z,81.80
2022-12-18T08:13:53.467Z,81.70
2022-12-18T08:16:24.243Z,82.00
2022-12-18T08:18:53.585Z,82.70
2022-12-18T08:21:26.115Z,82.80
2022-12-18T08:23:54.182Z,82.60
2022-12-18T08:26:22.070Z,83.20
2022-12-18T08:28:49.116Z,82.50
2022-12-18T08:31:17.342Z,82.50
2022-12-18T08:33:44.608Z,82.10
2022-12-18T08:36:11.553Z,81.90
2022-12-18T08:38:38.555Z,82.10
2022-12-18T08:41:10.936Z,81.60
2022-12-18T08:43:56.063Z,81.70
2022-12-18T08:46:24.821Z,82.70
2022-12-18T08:48:52.719Z,82.60
2022-12-18T08:51:20.484Z,82.30
2022-12-18T08:53:47.999Z,82.10
2022-12-18T08:56:15.481Z,82.00
2022-12-18T08:58:42.782Z,81.70
2022-12-18T09:01:11.439Z,82.50
2022-12-18T09:03:39.388Z,82.10
2022-12-18T09:06:07.165Z,82.40
2022-12-18T09:08:35.266Z,82.90
2022-12-18T09:11:01.966Z,83.30
2022-12-18T09:13:28.874Z,84.00
2022-12-18T09:15:56.808Z,84.50
2022-12-18T09:18:24.619Z,84.90
2022-12-18T09:20:53.370Z,85.40
2022-12-18T09:23:20.305Z,85.30
2022-12-18T09:25:49.913Z,85.30
2022-12-18T09:28:20.140Z,85.40
2022-12-18T09:30:49.880Z,85.60
2022-12-18T09:33:18.128Z,86.10
2022-12-18T09:35:46.067Z,86.40
2022-12-18T09:38:15.582Z,85.70
2022-12-18T09:40:48.724Z,84.70
2022-12-18T09:43:30.549Z,84.70
2022-12-18T09:46:03.619Z,85.40
2022-12-18T09:48:35.262Z,85.50
2022-12-18T09:51:10.253Z,85.10
2022-12-18T09:53:40.376Z,84.90
2022-12-18T09:56:12.296Z,84.70
2022-12-18T09:58:49.661Z,85.20
2022-12-18T10:01:22.314Z,85.40
2022-12-18T10:03:49.396Z,84.90
2022-12-18T10:06:31.518Z,84.60
2022-12-18T10:09:31.288Z,85.10
2022-12-18T10:12:18.062Z,85.00
2022-12-18T10:14:57.992Z,86.00
2022-12-18T10:17:36.588Z,85.60
2022-12-18T10:20:41.405Z,85.70
2022-12-18T10:23:34.629Z,85.80
2022-12-18T10:26:08.831Z,85.90
2022-12-18T10:28:38.827Z,86.20
2022-12-18T10:31:25.480Z,86.30
2022-12-18T10:33:54.782Z,86.70
2022-12-18T10:36:25.108Z,86.60
2022-12-18T10:38:52.273Z,87.00
2022-12-18T10:41:19.545Z,87.80
2022-12-18T10:43:48.414Z,88.10
2022-12-18T10:46:21.628Z,88.50
2022-12-18T10:48:48.329Z,88.80
2022-12-18T10:51:41.275Z,89.10
2022-12-18T10:54:20.513Z,89.10
2022-12-18T10:56:47.360Z,89.80
2022-12-18T10:59:18.905Z,90.00
2022-12-18T11:01:51.438Z,90.10
2022-12-18T11:04:20.984Z,90.20
2022-12-18T11:07:01.159Z,90.40
2022-12-18T11:09:33.741Z,90.50
2022-12-18T11:12:26.442Z,90.50
2022-12-18T11:14:58.130Z,90.30
2022-12-18T11:17:31.427Z,90.40
2022-12-18T11:20:01.740Z,90.80
2022-12-18T11:22:34.027Z,90.70
2022-12-18T11:25:32.205Z,90.90
2022-12-18T11:27:59.464Z,90.70
2022-12-18T11:30:31.714Z,91.20
2022-12-18T11:33:14.096Z,91.90
2022-12-18T11:35:57.990Z,92.00
2022-12-18T11:38:30.044Z,92.30
2022-12-18T11:41:49.721Z,92.60
2022-12-18T11:44:28.865Z,92.80
2022-12-18T11:47:10.789Z,92.70
2022-12-18T11:49:37.571Z,92.70
2022-12-18T11:52:26.597Z,92.90
2022-12-18T11:55:03.426Z,93.10
2022-12-18T11:57:35.197Z,93.30
2022-12-18T12:00:10.956Z,93.60
2022-12-18T12:02:48.770Z,93.30
2022-12-18T12:05:59.386Z,93.20
2022-12-18T12:08:55.121Z,92.90
2022-12-18T12:11:27.604Z,92.70
2022-12-18T12:14:02.717Z,92.90
2022-12-18T12:16:47.441Z,93.20
2022-12-18T12:19:23.697Z,93.40
2022-12-18T12:22:06.538Z,93.50
2022-12-18T12:25:10.882Z,93.80
2022-12-18T12:28:00.464Z,93.90
2022-12-18T12:30:46.375Z,93.70
2022-12-18T12:33:32.524Z,93.90
2022-12-18T12:36:11.936Z,94.30
2022-12-18T12:38:52.684Z,94.30
2022-12-18T12:41:50.988Z,94.70
2022-12-18T12:44:27.414Z,95.50
2022-12-18T12:47:00.316Z,95.50
2022-12-18T12:49:36.318Z,95.20
2022-12-18T12:52:17.865Z,95.40
2022-12-18T12:54:46.138Z,95.30
2022-12-18T12:57:27.873Z,95.40
2022-12-18T13:00:12.432Z,95.20
2022-12-18T13:03:17.855Z,95.10
2022-12-18T13:05:59.865Z,94.90
2022-12-18T13:09:00.806Z,94.80
2022-12-18T13:12:06.719Z,94.90
2022-12-18T13:14:35.117Z,94.80
2022-12-18T13:17:21.196Z,94.40
2022-12-18T13:20:12.037Z,94.40
2022-12-18T13:22:50.161Z,94.50
2022-12-18T13:25:38.484Z,94.50
2022-12-18T13:28:15.066Z,94.50
2022-12-18T13:30:42.797Z,94.50
2022-12-18T13:33:17.042Z,94.20
2022-12-18T13:35:46.883Z,94.00
2022-12-18T13:38:46.172Z,94.00
2022-12-18T13:41:18.735Z,94.10
2022-12-18T13:43:55.247Z,94.10
2022-12-18T13:46:24.926Z,94.30
2022-12-18T13:48:58.888Z,94.30
2022-12-18T13:51:27.025Z,94.90
2022-12-18T13:54:19.814Z,94.70
2022-12-18T13:56:48.913Z,94.70
2022-12-18T13:59:35.564Z,94.30
2022-12-18T14:02:16.483Z,94.50
2022-12-18T14:04:47.045Z,94.40
2022-12-18T14:07:34.597Z,94.00
2022-12-18T14:10:18.704Z,93.70
2022-12-18T14:13:01.004Z,93.80
2022-12-18T14:15:49.833Z,98.00
2022-12-18T14:18:21.858Z,99.90
2022-12-18T14:20:53.114Z,98.40
2022-12-18T14:23:31.691Z,94.40
2022-12-18T14:26:03.768Z,93.60
2022-12-18T14:28:32.081Z,93.40
2022-12-18T14:30:58.850Z,93.40
2022-12-18T14:33:28.213Z,93.20
2022-12-18T14:36:03.967Z,93.30
2022-12-18T14:38:34.533Z,93.50
2022-12-18T14:41:20.830Z,93.60
2022-12-18T14:43:52.564Z,93.50
2022-12-18T14:46:28.463Z,93.60
2022-12-18T14:48:56.804Z,93.80
2022-12-18T14:51:29.583Z,94.10
2022-12-18T14:54:01.672Z,94.00
2022-12-18T14:56:35.099Z,94.00
2022-12-18T14:59:15.205Z,94.30
2022-12-18T15:02:09.726Z,94.70
2022-12-18T15:04:41.709Z,94.90
2022-12-18T15:07:23.768Z,95.60
2022-12-18T15:10:13.019Z,95.70
2022-12-18T15:12:44.769Z,95.30
2022-12-18T15:15:40.488Z,95.30
2022-12-18T15:18:11.370Z,95.40
2022-12-18T15:20:45.996Z,95.20
2022-12-18T15:23:21.624Z,95.10
2022-12-18T15:25:59.691Z,95.00
2022-12-18T15:28:38.119Z,95.00
2022-12-18T15:31:14.853Z,95.00
2022-12-18T15:33:53.850Z,95.00
2022-12-18T15:36:26.783Z,95.50
2022-12-18T15:39:00.939Z,95.60
2022-12-18T15:41:35.838Z,95.40
2022-12-18T15:44:03.961Z,95.50
2022-12-18T15:46:31.746Z,95.50
2022-12-18T15:49:02.224Z,95.80
2022-12-18T15:51:36.658Z,96.10
2022-12-18T15:54:05.966Z,95.60
2022-12-18T15:56:51.694Z,95.20
2022-12-18T15:59:20.670Z,95.10
2022-12-18T16:01:49.955Z,95.20
2022-12-18T16:04:21.000Z,95.50
2022-12-18T16:07:13.754Z,95.60
2022-12-18T16:09:35.107Z,96.30
2022-12-18T16:12:01.943Z,95.50
2022-12-18T16:14:30.530Z,95.40
2022-12-18T16:17:03.743Z,95.20
2022-12-18T16:19:30.559Z,95.20
2022-12-18T16:21:59.357Z,95.10
2022-12-18T16:24:28.891Z,95.30
2022-12-18T16:26:57.158Z,96.10
2022-12-18T16:29:28.605Z,96.80
2022-12-18T16:32:00.023Z,97.00
2022-12-18T16:34:29.975Z,97.50
2022-12-18T16:37:05.494Z,97.70
2022-12-18T16:39:35.010Z,97.70
2022-12-18T16:42:07.322Z,97.30
2022-12-18T16:44:35.151Z,97.60
2022-12-18T16:47:03.191Z,97.40
2022-12-18T16:49:30.487Z,97.70
2022-12-18T16:51:57.246Z,97.60
2022-12-18T16:54:24.309Z,97.70
2022-12-18T16:56:52.043Z,97.80
2022-12-18T16:59:19.110Z,98.10
2022-12-18T17:01:47.283Z,98.10
2022-12-18T17:04:20.488Z,98.10
2022-12-18T17:06:52.017Z,98.00
2022-12-18T17:09:25.869Z,97.90
2022-12-18T17:11:53.481Z,97.80
2022-12-18T17:14:23.686Z,97.80
2022-12-18T17:17:07.455Z,97.70
2022-12-18T17:19:38.524Z,97.90
2022-12-18T17:22:05.335Z,97.80
2022-12-18T17:24:35.007Z,97.80
2022-12-18T17:27:02.848Z,97.70
2022-12-18T17:29:29.939Z,97.80
2022-12-18T17:31:56.737Z,98.20
2022-12-18T17:34:25.484Z,98.20
2022-12-18T17:36:52.240Z,98.80
2022-12-18T17:39:20.552Z,99.10
2022-12-18T17:41:48.015Z,99.70
2022-12-18T17:44:15.129Z,99.70
2022-12-18T17:46:42.065Z,99.90
2022-12-18T17:49:09.712Z,99.90
2022-12-18T17:51:36.412Z,99.90
2022-12-18T17:54:03.236Z,99.90
2022-12-18T17:56:30.048Z,99.90
2022-12-18T17:58:57.312Z,99.90
2022-12-18T18:01:25.895Z,99.90
2022-12-18T18:03:55.939Z,99.90
2022-12-18T18:06:23.722Z,99.90
2022-12-18T18:08:50.658Z,99.90
2022-12-18T18:11:38.115Z,99.90
2022-12-18T18:14:21.288Z,99.90
2022-12-18T18:16:50.684Z,99.90
2022-12-18T18:19:20.123Z,99.90
2022-12-18T18:21:49.250Z,99.90
2022-12-18T18:24:19.097Z,99.90
2022-12-18T18:26:47.087Z,99.90
2022-12-18T18:29:19.021Z,99.90
2022-12-18T18:31:46.077Z,99.90
2022-12-18T18:34:18.112Z,99.90
2022-12-18T18:36:46.224Z,99.90
2022-12-18T18:39:14.248Z,99.90
2022-12-18T18:41:41.280Z,99.90
2022-12-18T18:44:12.206Z,99.90
2022-12-18T18:46:39.245Z,99.90
2022-12-18T18:49:06.817Z,99.90
2022-12-18T18:51:35.254Z,99.90
2022-12-18T18:54:02.385Z,99.90
2022-12-18T18:59:16.940Z,99.90
2022-12-18T19:01:44.277Z,99.90
2022-12-18T19:04:11.219Z,99.90
2022-12-18T19:06:38.200Z,99.90
2022-12-18T19:09:06.700Z,99.90
2022-12-18T19:11:55.106Z,99.90
2022-12-18T19:14:27.829Z,99.90
2022-12-18T19:16:54.692Z,99.90
2022-12-18T19:19:22.521Z,99.90
2022-12-18T19:21:50.098Z,99.90
2022-12-18T19:24:17.056Z,99.90
2022-12-18T19:26:43.830Z,99.80
2022-12-18T19:29:12.484Z,99.60
2022-12-18T19:31:39.204Z,99.60
2022-12-18T19:34:07.081Z,99.80
2022-12-18T19:36:36.296Z,99.80
2022-12-18T19:39:15.950Z,99.60
2022-12-18T19:41:43.146Z,99.80
2022-12-18T19:44:13.718Z,99.90
2022-12-18T19:46:42.349Z,99.50
2022-12-18T19:49:11.109Z,99.20
2022-12-18T19:51:38.464Z,99.20
2022-12-18T19:54:05.546Z,99.40
2022-12-18T19:56:34.839Z,99.00
2022-12-18T19:59:03.635Z,99.20
2022-12-18T20:01:30.997Z,99.30
2022-12-18T20:03:59.101Z,99.50
2022-12-18T20:06:31.823Z,99.70
2022-12-18T20:09:02.384Z,99.60
2022-12-18T20:11:30.925Z,99.70
2022-12-18T20:14:01.585Z,99.70
2022-12-18T20:16:28.698Z,99.90
2022-12-18T20:18:56.954Z,99.90
2022-12-18T20:21:30.180Z,99.90
2022-12-18T20:23:57.070Z,99.90
2022-12-18T20:26:24.817Z,99.90
2022-12-18T20:28:52.361Z,99.90
2022-12-18T20:31:19.536Z,99.90
2022-12-18T20:33:48.731Z,99.90
2022-12-18T20:36:24.518Z,99.90
2022-12-18T20:38:54.670Z,99.90
2022-12-18T20:41:24.403Z,99.90
2022-12-18T20:43:51.622Z,99.90
2022-12-18T20:46:18.729Z,99.90
2022-12-18T20:48:46.298Z,99.90
2022-12-18T20:51:16.841Z,99.90
2022-12-18T20:53:45.077Z,99.90
2022-12-18T20:56:21.899Z,99.90
2022-12-18T20:58:50.234Z,99.90
2022-12-18T21:01:20.682Z,99.90
2022-12-18T21:03:48.540Z,99.20
2022-12-18T21:06:17.243Z,99.00
2022-12-18T21:08:44.386Z,99.00
2022-12-18T21:11:38.603Z,98.10
2022-12-18T21:14:22.024Z,98.90
2022-12-18T21:16:54.553Z,99.20
2022-12-18T21:19:24.466Z,98.80
2022-12-18T21:21:53.071Z,99.00
2022-12-18T21:24:20.716Z,99.40
2022-12-18T21:26:48.249Z,99.40
2022-12-18T21:29:20.975Z,99.20
2022-12-18T21:31:48.204Z,99.10
2022-12-18T21:34:20.835Z,98.90
2022-12-18T21:36:48.444Z,98.80
2022-12-18T21:39:15.449Z,98.90
2022-12-18T21:42:01.204Z,98.80
2022-12-18T21:44:28.161Z,98.80
2022-12-18T21:46:58.976Z,99.00
2022-12-18T21:49:28.397Z,99.10
2022-12-18T21:51:57.405Z,99.10
2022-12-18T21:54:25.653Z,99.20
2022-12-18T21:57:02.368Z,99.30
2022-12-18T21:59:33.461Z,99.00
2022-12-18T22:02:04.213Z,98.70
2022-12-18T22:04:31.166Z,98.70
2022-12-18T22:07:01.005Z,99.50
2022-12-18T22:09:27.693Z,99.90
2022-12-18T22:11:54.405Z,99.90
2022-12-18T22:14:21.917Z,99.90
2022-12-18T22:16:49.608Z,99.90
2022-12-18T22:19:18.102Z,99.90
2022-12-18T22:21:47.399Z,99.80
2022-12-18T22:24:17.085Z,99.40
2022-12-18T22:26:44.244Z,98.90
2022-12-18T22:29:34.837Z,98.30
2022-12-18T22:32:02.218Z,98.50
2022-12-18T22:34:29.208Z,98.40
2022-12-18T22:36:56.091Z,98.30
2022-12-18T22:39:33.687Z,98.40
2022-12-18T22:42:00.493Z,98.20
2022-12-18T22:44:27.715Z,98.70
2022-12-18T22:47:05.478Z,99.90
2022-12-18T22:49:34.856Z,99.90
2022-12-18T22:52:02.802Z,99.90
2022-12-18T22:54:29.764Z,99.80
2022-12-18T22:56:56.885Z,99.40
2022-12-18T22:59:24.011Z,99.40
2022-12-18T23:01:55.017Z,99.10
2022-12-18T23:04:36.490Z,98.80
2022-12-18T23:07:05.592Z,98.90
2022-12-18T23:09:33.191Z,98.60
2022-12-18T23:12:00.143Z,98.20
2022-12-18T23:14:28.122Z,98.00
2022-12-18T23:16:54.838Z,98.20
2022-12-18T23:19:22.703Z,98.20
2022-12-18T23:21:50.854Z,98.30
2022-12-18T23:24:17.614Z,98.30
2022-12-18T23:26:44.329Z,98.20
2022-12-18T23:29:11.073Z,98.30
2022-12-18T23:31:39.834Z,98.70
2022-12-18T23:34:07.424Z,99.10
2022-12-18T23:36:46.319Z,99.70
2022-12-18T23:39:19.251Z,99.90
2022-12-18T23:41:56.370Z,99.90
2022-12-18T23:44:23.246Z,99.90
2022-12-18T23:46:50.007Z,99.90
2022-12-18T23:49:16.741Z,99.90
2022-12-18T23:51:43.619Z,99.90
2022-12-18T23:54:10.509Z,99.90
2022-12-18T23:56:37.340Z,99.90
2022-12-18T23:59:04.049Z,99.90
